sensor_id;sensor_type;location;lat;lon;timestamp;P1;durP1;ratioP1;P2;durP2;ratioP2
58528;SDS011;44322;52.968;5.816;2024-01-06T00:01:51;22.98;;;18.90;;
58528;SDS011;44322;52.968;5.816;2024-01-06T00:04:16;23.08;;;19.40;;
58528;SDS011;44322;52.968;5.816;2024-01-06T00:06:42;23.85;;;19.83;;
58528;SDS011;44322;52.968;5.816;2024-01-06T00:09:08;24.42;;;20.38;;
58528;SDS011;44322;52.968;5.816;2024-01-06T00:11:33;24.52;;;20.17;;
58528;SDS011;44322;52.968;5.816;2024-01-06T00:13:59;24.20;;;20.05;;
58528;SDS011;44322;52.968;5.816;2024-01-06T00:16:24;26.30;;;21.48;;
58528;SDS011;44322;52.968;5.816;2024-01-06T00:18:50;24.45;;;21.00;;
58528;SDS011;44322;52.968;5.816;2024-01-06T00:21:16;25.83;;;21.88;;
58528;SDS011;44322;52.968;5.816;2024-01-06T00:23:41;25.55;;;20.73;;
58528;SDS011;44322;52.968;5.816;2024-01-06T00:26:07;25.00;;;21.00;;
58528;SDS011;44322;52.968;5.816;2024-01-06T00:28:36;24.27;;;20.88;;
58528;SDS011;44322;52.968;5.816;2024-01-06T00:31:02;24.75;;;21.33;;
58528;SDS011;44322;52.968;5.816;2024-01-06T00:33:28;25.00;;;20.85;;
58528;SDS011;44322;52.968;5.816;2024-01-06T00:35:53;23.38;;;20.85;;
58528;SDS011;44322;52.968;5.816;2024-01-06T00:38:21;24.00;;;20.15;;
58528;SDS011;44322;52.968;5.816;2024-01-06T00:40:46;22.63;;;19.15;;
58528;SDS011;44322;52.968;5.816;2024-01-06T00:43:12;23.90;;;20.00;;
58528;SDS011;44322;52.968;5.816;2024-01-06T00:45:37;23.63;;;19.33;;
58528;SDS011;44322;52.968;5.816;2024-01-06T00:48:03;23.77;;;19.05;;
58528;SDS011;44322;52.968;5.816;2024-01-06T00:50:29;23.67;;;19.33;;
58528;SDS011;44322;52.968;5.816;2024-01-06T00:52:55;25.67;;;20.92;;
58528;SDS011;44322;52.968;5.816;2024-01-06T00:55:21;24.08;;;20.00;;
58528;SDS011;44322;52.968;5.816;2024-01-06T00:57:47;22.92;;;19.67;;
58528;SDS011;44322;52.968;5.816;2024-01-06T01:00:13;25.27;;;19.27;;
58528;SDS011;44322;52.968;5.816;2024-01-06T01:02:39;21.77;;;18.42;;
58528;SDS011;44322;52.968;5.816;2024-01-06T01:05:05;20.33;;;17.92;;
58528;SDS011;44322;52.968;5.816;2024-01-06T01:07:32;21.75;;;18.58;;
58528;SDS011;44322;52.968;5.816;2024-01-06T01:09:58;20.52;;;17.23;;
58528;SDS011;44322;52.968;5.816;2024-01-06T01:12:24;22.83;;;17.85;;
58528;SDS011;44322;52.968;5.816;2024-01-06T01:14:50;19.83;;;16.90;;
58528;SDS011;44322;52.968;5.816;2024-01-06T01:17:16;21.00;;;17.85;;
58528;SDS011;44322;52.968;5.816;2024-01-06T01:19:42;20.13;;;17.15;;
58528;SDS011;44322;52.968;5.816;2024-01-06T01:22:08;20.05;;;17.13;;
58528;SDS011;44322;52.968;5.816;2024-01-06T01:24:33;19.45;;;15.95;;
58528;SDS011;44322;52.968;5.816;2024-01-06T01:26:59;17.95;;;15.77;;
58528;SDS011;44322;52.968;5.816;2024-01-06T01:29:24;19.35;;;15.57;;
58528;SDS011;44322;52.968;5.816;2024-01-06T01:31:50;17.30;;;15.40;;
58528;SDS011;44322;52.968;5.816;2024-01-06T01:34:16;19.60;;;16.00;;
58528;SDS011;44322;52.968;5.816;2024-01-06T01:36:41;21.15;;;16.73;;
58528;SDS011;44322;52.968;5.816;2024-01-06T01:39:07;19.70;;;16.00;;
58528;SDS011;44322;52.968;5.816;2024-01-06T01:41:33;18.77;;;15.57;;
58528;SDS011;44322;52.968;5.816;2024-01-06T01:43:58;20.30;;;15.60;;
58528;SDS011;44322;52.968;5.816;2024-01-06T01:46:27;19.40;;;16.75;;
58528;SDS011;44322;52.968;5.816;2024-01-06T01:48:54;19.17;;;16.83;;
58528;SDS011;44322;52.968;5.816;2024-01-06T01:51:21;19.20;;;16.15;;
58528;SDS011;44322;52.968;5.816;2024-01-06T01:53:46;19.98;;;16.63;;
58528;SDS011;44322;52.968;5.816;2024-01-06T01:56:13;18.48;;;15.93;;
58528;SDS011;44322;52.968;5.816;2024-01-06T01:58:39;19.23;;;15.40;;
58528;SDS011;44322;52.968;5.816;2024-01-06T02:01:06;17.73;;;15.30;;
58528;SDS011;44322;52.968;5.816;2024-01-06T02:03:32;18.40;;;15.15;;
58528;SDS011;44322;52.968;5.816;2024-01-06T02:05:58;19.42;;;15.88;;
58528;SDS011;44322;52.968;5.816;2024-01-06T02:08:24;17.67;;;15.05;;
58528;SDS011;44322;52.968;5.816;2024-01-06T02:10:50;21.45;;;15.85;;
58528;SDS011;44322;52.968;5.816;2024-01-06T02:13:15;16.92;;;14.50;;
58528;SDS011;44322;52.968;5.816;2024-01-06T02:15:41;20.05;;;15.88;;
58528;SDS011;44322;52.968;5.816;2024-01-06T02:18:07;17.65;;;14.73;;
58528;SDS011;44322;52.968;5.816;2024-01-06T02:20:32;16.98;;;14.73;;
58528;SDS011;44322;52.968;5.816;2024-01-06T02:22:58;19.20;;;15.20;;
58528;SDS011;44322;52.968;5.816;2024-01-06T02:25:25;18.38;;;14.85;;
58528;SDS011;44322;52.968;5.816;2024-01-06T02:27:51;18.05;;;14.82;;
58528;SDS011;44322;52.968;5.816;2024-01-06T02:30:16;18.73;;;14.95;;
58528;SDS011;44322;52.968;5.816;2024-01-06T02:32:42;17.23;;;14.27;;
58528;SDS011;44322;52.968;5.816;2024-01-06T02:35:08;16.02;;;13.90;;
58528;SDS011;44322;52.968;5.816;2024-01-06T02:37:33;18.88;;;14.30;;
58528;SDS011;44322;52.968;5.816;2024-01-06T02:39:59;17.88;;;14.65;;
58528;SDS011;44322;52.968;5.816;2024-01-06T02:42:25;18.25;;;13.75;;
58528;SDS011;44322;52.968;5.816;2024-01-06T02:44:50;16.33;;;13.75;;
58528;SDS011;44322;52.968;5.816;2024-01-06T02:47:16;19.17;;;14.65;;
58528;SDS011;44322;52.968;5.816;2024-01-06T02:49:42;18.50;;;14.80;;
58528;SDS011;44322;52.968;5.816;2024-01-06T02:52:07;21.65;;;15.18;;
58528;SDS011;44322;52.968;5.816;2024-01-06T02:54:33;16.88;;;13.93;;
58528;SDS011;44322;52.968;5.816;2024-01-06T02:56:59;19.88;;;15.23;;
58528;SDS011;44322;52.968;5.816;2024-01-06T02:59:24;17.38;;;14.13;;
58528;SDS011;44322;52.968;5.816;2024-01-06T03:01:50;19.50;;;14.32;;
58528;SDS011;44322;52.968;5.816;2024-01-06T03:04:16;17.73;;;14.10;;
58528;SDS011;44322;52.968;5.816;2024-01-06T03:06:42;18.45;;;14.80;;
58528;SDS011;44322;52.968;5.816;2024-01-06T03:09:08;19.20;;;14.70;;
58528;SDS011;44322;52.968;5.816;2024-01-06T03:11:33;20.25;;;15.38;;
58528;SDS011;44322;52.968;5.816;2024-01-06T03:13:59;18.55;;;13.93;;
58528;SDS011;44322;52.968;5.816;2024-01-06T03:16:24;20.60;;;15.30;;
58528;SDS011;44322;52.968;5.816;2024-01-06T03:18:50;20.98;;;15.15;;
58528;SDS011;44322;52.968;5.816;2024-01-06T03:21:16;20.92;;;14.98;;
58528;SDS011;44322;52.968;5.816;2024-01-06T03:23:43;20.40;;;16.20;;
58528;SDS011;44322;52.968;5.816;2024-01-06T03:26:09;20.67;;;16.60;;
58528;SDS011;44322;52.968;5.816;2024-01-06T03:28:34;17.98;;;15.70;;
58528;SDS011;44322;52.968;5.816;2024-01-06T03:31:00;20.42;;;14.90;;
58528;SDS011;44322;52.968;5.816;2024-01-06T03:33:25;18.23;;;14.57;;
58528;SDS011;44322;52.968;5.816;2024-01-06T03:35:51;19.38;;;14.85;;
58528;SDS011;44322;52.968;5.816;2024-01-06T03:38:16;20.35;;;15.15;;
58528;SDS011;44322;52.968;5.816;2024-01-06T03:40:42;20.50;;;16.02;;
58528;SDS011;44322;52.968;5.816;2024-01-06T03:43:08;20.38;;;14.90;;
58528;SDS011;44322;52.968;5.816;2024-01-06T03:45:33;18.63;;;15.10;;
58528;SDS011;44322;52.968;5.816;2024-01-06T03:47:59;17.17;;;14.82;;
58528;SDS011;44322;52.968;5.816;2024-01-06T03:50:24;20.33;;;14.90;;
58528;SDS011;44322;52.968;5.816;2024-01-06T03:52:50;17.50;;;14.25;;
58528;SDS011;44322;52.968;5.816;2024-01-06T03:55:15;19.08;;;15.68;;
58528;SDS011;44322;52.968;5.816;2024-01-06T03:57:41;20.58;;;15.90;;
58528;SDS011;44322;52.968;5.816;2024-01-06T04:00:07;19.58;;;14.57;;
58528;SDS011;44322;52.968;5.816;2024-01-06T04:02:33;19.48;;;15.35;;
58528;SDS011;44322;52.968;5.816;2024-01-06T04:04:59;19.95;;;14.77;;
58528;SDS011;44322;52.968;5.816;2024-01-06T04:07:24;18.38;;;14.32;;
58528;SDS011;44322;52.968;5.816;2024-01-06T04:09:50;19.40;;;14.95;;
58528;SDS011;44322;52.968;5.816;2024-01-06T04:12:16;18.23;;;14.15;;
58528;SDS011;44322;52.968;5.816;2024-01-06T04:14:42;20.17;;;14.32;;
58528;SDS011;44322;52.968;5.816;2024-01-06T04:17:07;18.75;;;14.27;;
58528;SDS011;44322;52.968;5.816;2024-01-06T04:19:33;18.50;;;13.85;;
58528;SDS011;44322;52.968;5.816;2024-01-06T04:21:59;18.02;;;13.93;;
58528;SDS011;44322;52.968;5.816;2024-01-06T04:24:25;18.17;;;13.77;;
58528;SDS011;44322;52.968;5.816;2024-01-06T04:26:51;16.92;;;13.55;;
58528;SDS011;44322;52.968;5.816;2024-01-06T04:29:19;16.85;;;13.57;;
58528;SDS011;44322;52.968;5.816;2024-01-06T04:31:45;19.45;;;13.40;;
58528;SDS011;44322;52.968;5.816;2024-01-06T04:34:11;15.40;;;13.35;;
58528;SDS011;44322;52.968;5.816;2024-01-06T04:36:37;18.08;;;13.25;;
58528;SDS011;44322;52.968;5.816;2024-01-06T04:39:02;15.45;;;12.98;;
58528;SDS011;44322;52.968;5.816;2024-01-06T04:41:28;17.67;;;13.38;;
58528;SDS011;44322;52.968;5.816;2024-01-06T04:43:54;18.48;;;13.90;;
58528;SDS011;44322;52.968;5.816;2024-01-06T04:46:19;16.65;;;13.27;;
58528;SDS011;44322;52.968;5.816;2024-01-06T04:48:46;20.33;;;13.32;;
58528;SDS011;44322;52.968;5.816;2024-01-06T04:51:12;17.35;;;13.20;;
58528;SDS011;44322;52.968;5.816;2024-01-06T04:53:39;18.02;;;14.30;;
58528;SDS011;44322;52.968;5.816;2024-01-06T04:56:04;17.73;;;13.45;;
58528;SDS011;44322;52.968;5.816;2024-01-06T04:58:30;17.55;;;12.88;;
58528;SDS011;44322;52.968;5.816;2024-01-06T05:00:55;17.25;;;13.27;;
58528;SDS011;44322;52.968;5.816;2024-01-06T05:03:21;18.60;;;13.63;;
58528;SDS011;44322;52.968;5.816;2024-01-06T05:05:47;19.75;;;13.85;;
58528;SDS011;44322;52.968;5.816;2024-01-06T05:08:12;17.25;;;13.07;;
58528;SDS011;44322;52.968;5.816;2024-01-06T05:10:38;18.00;;;12.52;;
58528;SDS011;44322;52.968;5.816;2024-01-06T05:13:04;17.13;;;13.15;;
58528;SDS011;44322;52.968;5.816;2024-01-06T05:15:29;18.17;;;13.05;;
58528;SDS011;44322;52.968;5.816;2024-01-06T05:17:55;19.38;;;13.68;;
58528;SDS011;44322;52.968;5.816;2024-01-06T05:20:20;15.15;;;13.10;;
58528;SDS011;44322;52.968;5.816;2024-01-06T05:22:46;18.20;;;13.50;;
58528;SDS011;44322;52.968;5.816;2024-01-06T05:25:12;15.95;;;13.38;;
58528;SDS011;44322;52.968;5.816;2024-01-06T05:27:37;16.75;;;12.90;;
58528;SDS011;44322;52.968;5.816;2024-01-06T05:30:03;18.48;;;12.73;;
58528;SDS011;44322;52.968;5.816;2024-01-06T05:32:29;17.48;;;13.00;;
58528;SDS011;44322;52.968;5.816;2024-01-06T05:34:54;16.23;;;12.63;;
58528;SDS011;44322;52.968;5.816;2024-01-06T05:37:20;16.77;;;13.18;;
58528;SDS011;44322;52.968;5.816;2024-01-06T05:39:46;14.35;;;11.73;;
58528;SDS011;44322;52.968;5.816;2024-01-06T05:42:12;19.20;;;13.02;;
58528;SDS011;44322;52.968;5.816;2024-01-06T05:44:38;15.50;;;12.80;;
58528;SDS011;44322;52.968;5.816;2024-01-06T05:47:04;17.63;;;12.93;;
58528;SDS011;44322;52.968;5.816;2024-01-06T05:49:30;14.63;;;12.60;;
58528;SDS011;44322;52.968;5.816;2024-01-06T05:51:55;16.15;;;12.52;;
58528;SDS011;44322;52.968;5.816;2024-01-06T05:54:21;16.52;;;12.65;;
58528;SDS011;44322;52.968;5.816;2024-01-06T05:56:46;19.27;;;13.88;;
58528;SDS011;44322;52.968;5.816;2024-01-06T05:59:12;17.83;;;12.68;;
58528;SDS011;44322;52.968;5.816;2024-01-06T06:01:38;16.10;;;12.93;;
58528;SDS011;44322;52.968;5.816;2024-01-06T06:04:03;17.92;;;13.80;;
58528;SDS011;44322;52.968;5.816;2024-01-06T06:06:29;18.40;;;14.23;;
58528;SDS011;44322;52.968;5.816;2024-01-06T06:08:55;17.73;;;14.00;;
58528;SDS011;44322;52.968;5.816;2024-01-06T06:11:21;18.55;;;14.10;;
58528;SDS011;44322;52.968;5.816;2024-01-06T06:13:47;18.50;;;13.82;;
58528;SDS011;44322;52.968;5.816;2024-01-06T06:16:12;19.20;;;13.85;;
58528;SDS011;44322;52.968;5.816;2024-01-06T06:18:38;18.25;;;13.30;;
58528;SDS011;44322;52.968;5.816;2024-01-06T06:21:05;20.65;;;13.95;;
58528;SDS011;44322;52.968;5.816;2024-01-06T06:23:31;19.58;;;13.48;;
58528;SDS011;44322;52.968;5.816;2024-01-06T06:25:57;20.73;;;13.35;;
58528;SDS011;44322;52.968;5.816;2024-01-06T06:28:23;18.67;;;13.88;;
58528;SDS011;44322;52.968;5.816;2024-01-06T06:30:48;17.13;;;13.20;;
58528;SDS011;44322;52.968;5.816;2024-01-06T06:33:14;18.92;;;13.80;;
58528;SDS011;44322;52.968;5.816;2024-01-06T06:35:40;17.75;;;13.10;;
58528;SDS011;44322;52.968;5.816;2024-01-06T06:38:06;19.30;;;13.77;;
58528;SDS011;44322;52.968;5.816;2024-01-06T06:40:31;16.27;;;12.45;;
58528;SDS011;44322;52.968;5.816;2024-01-06T06:42:57;18.52;;;13.32;;
58528;SDS011;44322;52.968;5.816;2024-01-06T06:45:22;18.65;;;13.88;;
58528;SDS011;44322;52.968;5.816;2024-01-06T06:47:49;15.65;;;13.48;;
58528;SDS011;44322;52.968;5.816;2024-01-06T06:50:18;18.33;;;14.15;;
58528;SDS011;44322;52.968;5.816;2024-01-06T06:52:46;20.80;;;13.68;;
58528;SDS011;44322;52.968;5.816;2024-01-06T06:55:12;16.67;;;13.38;;
58528;SDS011;44322;52.968;5.816;2024-01-06T06:57:38;17.75;;;13.05;;
58528;SDS011;44322;52.968;5.816;2024-01-06T07:00:04;15.80;;;12.75;;
58528;SDS011;44322;52.968;5.816;2024-01-06T07:02:32;18.92;;;13.15;;
58528;SDS011;44322;52.968;5.816;2024-01-06T07:04:59;17.52;;;13.25;;
58528;SDS011;44322;52.968;5.816;2024-01-06T07:07:24;16.88;;;12.88;;
58528;SDS011;44322;52.968;5.816;2024-01-06T07:09:50;18.48;;;13.70;;
58528;SDS011;44322;52.968;5.816;2024-01-06T07:12:16;19.92;;;13.40;;
58528;SDS011;44322;52.968;5.816;2024-01-06T07:14:41;18.42;;;13.55;;
58528;SDS011;44322;52.968;5.816;2024-01-06T07:17:07;17.42;;;13.70;;
58528;SDS011;44322;52.968;5.816;2024-01-06T07:19:34;19.67;;;13.70;;
58528;SDS011;44322;52.968;5.816;2024-01-06T07:22:00;16.35;;;13.15;;
58528;SDS011;44322;52.968;5.816;2024-01-06T07:24:25;17.30;;;14.32;;
58528;SDS011;44322;52.968;5.816;2024-01-06T07:26:52;16.17;;;13.32;;
58528;SDS011;44322;52.968;5.816;2024-01-06T07:29:18;20.42;;;13.70;;
58528;SDS011;44322;52.968;5.816;2024-01-06T07:31:44;21.75;;;14.70;;
58528;SDS011;44322;52.968;5.816;2024-01-06T07:34:10;19.15;;;14.27;;
58528;SDS011;44322;52.968;5.816;2024-01-06T07:36:36;20.30;;;13.45;;
58528;SDS011;44322;52.968;5.816;2024-01-06T07:39:01;21.08;;;13.65;;
58528;SDS011;44322;52.968;5.816;2024-01-06T07:41:28;20.85;;;14.40;;
58528;SDS011;44322;52.968;5.816;2024-01-06T07:43:56;19.20;;;14.00;;
58528;SDS011;44322;52.968;5.816;2024-01-06T07:46:21;18.98;;;14.27;;
58528;SDS011;44322;52.968;5.816;2024-01-06T07:49:05;18.55;;;14.18;;
58528;SDS011;44322;52.968;5.816;2024-01-06T07:51:31;18.55;;;13.52;;
58528;SDS011;44322;52.968;5.816;2024-01-06T07:53:59;21.10;;;14.43;;
58528;SDS011;44322;52.968;5.816;2024-01-06T07:56:25;18.33;;;13.88;;
58528;SDS011;44322;52.968;5.816;2024-01-06T07:58:51;19.10;;;14.50;;
58528;SDS011;44322;52.968;5.816;2024-01-06T08:01:17;19.42;;;14.50;;
58528;SDS011;44322;52.968;5.816;2024-01-06T08:03:43;19.00;;;13.85;;
58528;SDS011;44322;52.968;5.816;2024-01-06T08:06:09;19.50;;;14.15;;
58528;SDS011;44322;52.968;5.816;2024-01-06T08:08:35;19.38;;;15.13;;
58528;SDS011;44322;52.968;5.816;2024-01-06T08:11:01;18.38;;;14.50;;
58528;SDS011;44322;52.968;5.816;2024-01-06T08:13:26;19.13;;;14.35;;
58528;SDS011;44322;52.968;5.816;2024-01-06T08:15:52;18.45;;;13.93;;
58528;SDS011;44322;52.968;5.816;2024-01-06T08:18:18;18.92;;;14.50;;
58528;SDS011;44322;52.968;5.816;2024-01-06T08:20:43;19.00;;;14.30;;
58528;SDS011;44322;52.968;5.816;2024-01-06T08:23:09;17.17;;;14.10;;
58528;SDS011;44322;52.968;5.816;2024-01-06T08:25:35;18.58;;;14.68;;
58528;SDS011;44322;52.968;5.816;2024-01-06T08:28:01;16.95;;;14.95;;
58528;SDS011;44322;52.968;5.816;2024-01-06T08:30:27;19.20;;;14.18;;
58528;SDS011;44322;52.968;5.816;2024-01-06T08:32:53;17.70;;;14.00;;
58528;SDS011;44322;52.968;5.816;2024-01-06T08:35:18;17.20;;;14.07;;
58528;SDS011;44322;52.968;5.816;2024-01-06T08:37:45;21.15;;;14.80;;
58528;SDS011;44322;52.968;5.816;2024-01-06T08:40:21;19.73;;;14.48;;
58528;SDS011;44322;52.968;5.816;2024-01-06T08:42:55;16.73;;;13.88;;
58528;SDS011;44322;52.968;5.816;2024-01-06T08:46:15;19.50;;;15.43;;
58528;SDS011;44322;52.968;5.816;2024-01-06T08:48:43;19.83;;;14.85;;
58528;SDS011;44322;52.968;5.816;2024-01-06T08:51:08;19.90;;;15.38;;
58528;SDS011;44322;52.968;5.816;2024-01-06T08:53:37;19.48;;;15.38;;
58528;SDS011;44322;52.968;5.816;2024-01-06T08:56:03;20.50;;;15.63;;
58528;SDS011;44322;52.968;5.816;2024-01-06T08:58:29;25.08;;;15.98;;
58528;SDS011;44322;52.968;5.816;2024-01-06T09:00:54;20.63;;;15.88;;
58528;SDS011;44322;52.968;5.816;2024-01-06T09:06:17;18.80;;;15.20;;
58528;SDS011;44322;52.968;5.816;2024-01-06T09:08:43;20.45;;;15.15;;
58528;SDS011;44322;52.968;5.816;2024-01-06T09:11:08;19.40;;;15.18;;
58528;SDS011;44322;52.968;5.816;2024-01-06T09:13:34;18.48;;;15.82;;
58528;SDS011;44322;52.968;5.816;2024-01-06T09:16:00;23.90;;;16.17;;
58528;SDS011;44322;52.968;5.816;2024-01-06T09:18:27;18.50;;;15.90;;
58528;SDS011;44322;52.968;5.816;2024-01-06T09:20:52;19.83;;;16.17;;
58528;SDS011;44322;52.968;5.816;2024-01-06T09:23:19;19.90;;;15.93;;
58528;SDS011;44322;52.968;5.816;2024-01-06T09:25:57;20.73;;;15.93;;
58528;SDS011;44322;52.968;5.816;2024-01-06T09:28:51;18.90;;;15.52;;
58528;SDS011;44322;52.968;5.816;2024-01-06T09:31:43;18.23;;;15.40;;
58528;SDS011;44322;52.968;5.816;2024-01-06T09:34:10;20.27;;;16.58;;
58528;SDS011;44322;52.968;5.816;2024-01-06T09:36:40;21.17;;;15.43;;
58528;SDS011;44322;52.968;5.816;2024-01-06T09:41:35;21.13;;;16.38;;
58528;SDS011;44322;52.968;5.816;2024-01-06T09:44:07;20.73;;;15.93;;
58528;SDS011;44322;52.968;5.816;2024-01-06T09:46:44;21.55;;;16.73;;
58528;SDS011;44322;52.968;5.816;2024-01-06T09:49:22;22.80;;;16.73;;
58528;SDS011;44322;52.968;5.816;2024-01-06T09:51:52;23.40;;;17.20;;
58528;SDS011;44322;52.968;5.816;2024-01-06T09:54:30;23.48;;;17.75;;
58528;SDS011;44322;52.968;5.816;2024-01-06T09:57:09;22.70;;;18.35;;
58528;SDS011;44322;52.968;5.816;2024-01-06T09:59:47;23.83;;;17.20;;
58528;SDS011;44322;52.968;5.816;2024-01-06T10:02:23;24.27;;;18.17;;
58528;SDS011;44322;52.968;5.816;2024-01-06T10:05:05;26.83;;;17.95;;
58528;SDS011;44322;52.968;5.816;2024-01-06T10:07:41;26.52;;;18.27;;
58528;SDS011;44322;52.968;5.816;2024-01-06T10:10:47;22.58;;;17.52;;
58528;SDS011;44322;52.968;5.816;2024-01-06T10:13:16;23.40;;;17.05;;
58528;SDS011;44322;52.968;5.816;2024-01-06T10:15:42;23.58;;;17.35;;
58528;SDS011;44322;52.968;5.816;2024-01-06T10:18:08;21.40;;;17.10;;
58528;SDS011;44322;52.968;5.816;2024-01-06T10:20:33;21.67;;;16.98;;
58528;SDS011;44322;52.968;5.816;2024-01-06T10:23:04;23.52;;;16.08;;
58528;SDS011;44322;52.968;5.816;2024-01-06T10:25:30;22.15;;;16.95;;
58528;SDS011;44322;52.968;5.816;2024-01-06T10:27:56;24.58;;;17.75;;
58528;SDS011;44322;52.968;5.816;2024-01-06T10:30:22;22.98;;;17.20;;
58528;SDS011;44322;52.968;5.816;2024-01-06T10:32:50;23.75;;;16.30;;
58528;SDS011;44322;52.968;5.816;2024-01-06T10:35:16;21.90;;;17.10;;
58528;SDS011;44322;52.968;5.816;2024-01-06T10:37:41;22.90;;;17.20;;
58528;SDS011;44322;52.968;5.816;2024-01-06T10:40:14;21.83;;;16.90;;
58528;SDS011;44322;52.968;5.816;2024-01-06T10:42:43;19.73;;;16.63;;
58528;SDS011;44322;52.968;5.816;2024-01-06T10:45:13;22.88;;;16.80;;
58528;SDS011;44322;52.968;5.816;2024-01-06T10:47:43;22.48;;;17.42;;
58528;SDS011;44322;52.968;5.816;2024-01-06T10:50:10;23.25;;;17.10;;
58528;SDS011;44322;52.968;5.816;2024-01-06T10:52:51;25.08;;;17.73;;
58528;SDS011;44322;52.968;5.816;2024-01-06T10:55:25;24.02;;;17.60;;
58528;SDS011;44322;52.968;5.816;2024-01-06T10:58:27;21.00;;;16.55;;
58528;SDS011;44322;52.968;5.816;2024-01-06T11:01:42;19.60;;;15.50;;
58528;SDS011;44322;52.968;5.816;2024-01-06T11:05:13;23.35;;;16.58;;
58528;SDS011;44322;52.968;5.816;2024-01-06T11:07:59;19.90;;;15.60;;
58528;SDS011;44322;52.968;5.816;2024-01-06T11:10:33;21.13;;;15.50;;
58528;SDS011;44322;52.968;5.816;2024-01-06T11:13:23;20.10;;;15.68;;
58528;SDS011;44322;52.968;5.816;2024-01-06T11:15:51;18.77;;;15.43;;
58528;SDS011;44322;52.968;5.816;2024-01-06T11:27:07;20.88;;;15.68;;
58528;SDS011;44322;52.968;5.816;2024-01-06T11:41:47;19.73;;;14.73;;
58528;SDS011;44322;52.968;5.816;2024-01-06T11:44:17;21.60;;;16.55;;
58528;SDS011;44322;52.968;5.816;2024-01-06T11:46:45;19.85;;;15.20;;
58528;SDS011;44322;52.968;5.816;2024-01-06T11:49:10;18.45;;;14.50;;
58528;SDS011;44322;52.968;5.816;2024-01-06T11:51:36;17.85;;;15.10;;
58528;SDS011;44322;52.968;5.816;2024-01-06T11:54:02;19.95;;;15.63;;
58528;SDS011;44322;52.968;5.816;2024-01-06T11:56:27;19.50;;;15.07;;
58528;SDS011;44322;52.968;5.816;2024-01-06T11:58:54;18.23;;;14.30;;
58528;SDS011;44322;52.968;5.816;2024-01-06T12:01:20;19.60;;;14.90;;
58528;SDS011;44322;52.968;5.816;2024-01-06T12:03:46;18.38;;;14.20;;
58528;SDS011;44322;52.968;5.816;2024-01-06T12:06:12;16.77;;;13.43;;
58528;SDS011;44322;52.968;5.816;2024-01-06T12:08:41;17.63;;;13.98;;
58528;SDS011;44322;52.968;5.816;2024-01-06T12:11:07;18.58;;;14.27;;
58528;SDS011;44322;52.968;5.816;2024-01-06T12:13:33;16.63;;;12.93;;
58528;SDS011;44322;52.968;5.816;2024-01-06T12:15:59;14.40;;;12.65;;
58528;SDS011;44322;52.968;5.816;2024-01-06T12:18:32;17.52;;;13.02;;
58528;SDS011;44322;52.968;5.816;2024-01-06T12:21:01;16.27;;;11.93;;
58528;SDS011;44322;52.968;5.816;2024-01-06T12:23:30;14.48;;;12.10;;
58528;SDS011;44322;52.968;5.816;2024-01-06T12:25:56;14.27;;;12.15;;
58528;SDS011;44322;52.968;5.816;2024-01-06T12:28:24;12.13;;;10.88;;
58528;SDS011;44322;52.968;5.816;2024-01-06T12:30:53;12.80;;;11.38;;
58528;SDS011;44322;52.968;5.816;2024-01-06T12:33:19;12.45;;;11.15;;
58528;SDS011;44322;52.968;5.816;2024-01-06T12:35:45;13.88;;;11.15;;
58528;SDS011;44322;52.968;5.816;2024-01-06T12:38:10;12.45;;;10.55;;
58528;SDS011;44322;52.968;5.816;2024-01-06T12:40:36;13.90;;;10.82;;
58528;SDS011;44322;52.968;5.816;2024-01-06T12:43:05;13.43;;;11.65;;
58528;SDS011;44322;52.968;5.816;2024-01-06T12:45:31;12.88;;;10.13;;
58528;SDS011;44322;52.968;5.816;2024-01-06T12:47:57;11.55;;;10.10;;
58528;SDS011;44322;52.968;5.816;2024-01-06T12:50:24;12.65;;;10.13;;
58528;SDS011;44322;52.968;5.816;2024-01-06T12:52:54;12.55;;;10.25;;
58528;SDS011;44322;52.968;5.816;2024-01-06T12:55:23;12.95;;;10.13;;
58528;SDS011;44322;52.968;5.816;2024-01-06T12:57:49;11.10;;;9.43;;
58528;SDS011;44322;52.968;5.816;2024-01-06T13:00:15;12.48;;;10.00;;
58528;SDS011;44322;52.968;5.816;2024-01-06T13:02:41;11.60;;;9.32;;
58528;SDS011;44322;52.968;5.816;2024-01-06T13:05:07;9.63;;;8.50;;
58528;SDS011;44322;52.968;5.816;2024-01-06T13:07:34;9.88;;;8.45;;
58528;SDS011;44322;52.968;5.816;2024-01-06T13:10:03;10.73;;;9.35;;
58528;SDS011;44322;52.968;5.816;2024-01-06T13:12:29;10.73;;;9.35;;
58528;SDS011;44322;52.968;5.816;2024-01-06T13:14:55;11.88;;;9.18;;
58528;SDS011;44322;52.968;5.816;2024-01-06T13:17:21;11.40;;;9.38;;
58528;SDS011;44322;52.968;5.816;2024-01-06T13:19:47;11.02;;;9.73;;
58528;SDS011;44322;52.968;5.816;2024-01-06T13:22:14;12.63;;;10.00;;
58528;SDS011;44322;52.968;5.816;2024-01-06T13:24:45;11.88;;;9.40;;
58528;SDS011;44322;52.968;5.816;2024-01-06T13:27:11;10.70;;;9.45;;
58528;SDS011;44322;52.968;5.816;2024-01-06T13:29:37;10.38;;;9.27;;
58528;SDS011;44322;52.968;5.816;2024-01-06T13:32:03;11.43;;;10.23;;
58528;SDS011;44322;52.968;5.816;2024-01-06T13:34:30;12.65;;;10.48;;
58528;SDS011;44322;52.968;5.816;2024-01-06T13:36:56;11.90;;;10.63;;
58528;SDS011;44322;52.968;5.816;2024-01-06T13:39:23;14.63;;;11.73;;
58528;SDS011;44322;52.968;5.816;2024-01-06T13:41:48;14.07;;;11.82;;
58528;SDS011;44322;52.968;5.816;2024-01-06T13:44:15;13.90;;;11.80;;
58528;SDS011;44322;52.968;5.816;2024-01-06T13:46:41;13.63;;;12.23;;
58528;SDS011;44322;52.968;5.816;2024-01-06T13:49:12;14.75;;;12.80;;
58528;SDS011;44322;52.968;5.816;2024-01-06T13:51:39;13.15;;;11.75;;
58528;SDS011;44322;52.968;5.816;2024-01-06T13:54:05;11.95;;;10.85;;
58528;SDS011;44322;52.968;5.816;2024-01-06T13:56:30;12.32;;;10.98;;
58528;SDS011;44322;52.968;5.816;2024-01-06T13:58:56;12.38;;;11.05;;
58528;SDS011;44322;52.968;5.816;2024-01-06T14:01:22;12.90;;;10.68;;
58528;SDS011;44322;52.968;5.816;2024-01-06T14:03:49;11.77;;;10.57;;
58528;SDS011;44322;52.968;5.816;2024-01-06T14:06:15;11.38;;;10.27;;
58528;SDS011;44322;52.968;5.816;2024-01-06T14:08:43;11.40;;;10.20;;
58528;SDS011;44322;52.968;5.816;2024-01-06T14:11:09;11.68;;;10.48;;
58528;SDS011;44322;52.968;5.816;2024-01-06T14:13:34;11.50;;;10.32;;
58528;SDS011;44322;52.968;5.816;2024-01-06T14:16:00;11.90;;;10.65;;
58528;SDS011;44322;52.968;5.816;2024-01-06T14:18:25;11.18;;;10.05;;
58528;SDS011;44322;52.968;5.816;2024-01-06T14:20:52;11.90;;;10.77;;
58528;SDS011;44322;52.968;5.816;2024-01-06T14:23:20;12.23;;;10.65;;
58528;SDS011;44322;52.968;5.816;2024-01-06T14:25:46;11.82;;;10.63;;
58528;SDS011;44322;52.968;5.816;2024-01-06T14:28:12;11.38;;;10.27;;
58528;SDS011;44322;52.968;5.816;2024-01-06T14:30:38;12.00;;;10.88;;
58528;SDS011;44322;52.968;5.816;2024-01-06T14:33:03;12.23;;;11.02;;
58528;SDS011;44322;52.968;5.816;2024-01-06T14:35:29;11.63;;;10.43;;
58528;SDS011;44322;52.968;5.816;2024-01-06T14:37:55;11.52;;;10.15;;
58528;SDS011;44322;52.968;5.816;2024-01-06T14:40:21;11.90;;;10.52;;
58528;SDS011;44322;52.968;5.816;2024-01-06T14:42:47;12.07;;;10.73;;
58528;SDS011;44322;52.968;5.816;2024-01-06T14:45:13;11.48;;;10.27;;
58528;SDS011;44322;52.968;5.816;2024-01-06T14:47:39;12.02;;;10.88;;
58528;SDS011;44322;52.968;5.816;2024-01-06T14:50:07;11.73;;;10.50;;